sensor_id;sensor_type;location;lat;lon;timestamp;pressure;altitude;pressure_sealevel;temperature;humidity
68075;BME280;54864;52.002;5.468;2023-09-12T00:00:44;101124.31;;;22.44;83.15
68075;BME280;54864;52.002;5.468;2023-09-12T00:01:46;101122.19;;;22.48;83.28
68075;BME280;54864;52.002;5.468;2023-09-12T00:02:47;101118.53;;;22.49;83.12
68075;BME280;54864;52.002;5.468;2023-09-12T00:03:49;101117.53;;;22.50;82.77
68075;BME280;54864;52.002;5.468;2023-09-12T00:04:50;101121.22;;;22.49;82.79
68075;BME280;54864;52.002;5.468;2023-09-12T00:05:52;101115.84;;;22.49;82.89
68075;BME280;54864;52.002;5.468;2023-09-12T00:06:53;101118.09;;;22.44;82.35
68075;BME280;54864;52.002;5.468;2023-09-12T00:07:54;101110.84;;;22.35;83.25
68075;BME280;54864;52.002;5.468;2023-09-12T00:08:55;101114.81;;;22.31;84.28
68075;BME280;54864;52.002;5.468;2023-09-12T00:09:57;101118.91;;;22.35;83.93
68075;BME280;54864;52.002;5.468;2023-09-12T00:10:59;101121.34;;;22.38;83.51
68075;BME280;54864;52.002;5.468;2023-09-12T00:12:02;101119.78;;;22.35;82.78
68075;BME280;54864;52.002;5.468;2023-09-12T00:13:04;101120.63;;;22.36;83.05
68075;BME280;54864;52.002;5.468;2023-09-12T00:14:04;101123.31;;;22.36;82.59
68075;BME280;54864;52.002;5.468;2023-09-12T00:15:08;101124.44;;;22.33;82.09
68075;BME280;54864;52.002;5.468;2023-09-12T00:16:09;101116.06;;;22.27;82.48
68075;BME280;54864;52.002;5.468;2023-09-12T00:17:11;101117.91;;;22.26;82.58
68075;BME280;54864;52.002;5.468;2023-09-12T00:18:12;101116.94;;;22.27;82.19
68075;BME280;54864;52.002;5.468;2023-09-12T00:19:13;101114.50;;;22.24;82.31
68075;BME280;54864;52.002;5.468;2023-09-12T00:20:15;101114.78;;;22.21;82.24
68075;BME280;54864;52.002;5.468;2023-09-12T00:21:16;101117.47;;;22.21;82.41
68075;BME280;54864;52.002;5.468;2023-09-12T00:22:17;101117.34;;;22.23;82.31
68075;BME280;54864;52.002;5.468;2023-09-12T00:23:21;101119.03;;;22.24;82.03
68075;BME280;54864;52.002;5.468;2023-09-12T00:24:22;101113.66;;;22.24;81.80
68075;BME280;54864;52.002;5.468;2023-09-12T00:25:22;101111.66;;;22.16;81.85
68075;BME280;54864;52.002;5.468;2023-09-12T00:26:25;101108.00;;;22.17;81.65
68075;BME280;54864;52.002;5.468;2023-09-12T00:27:27;101103.75;;;22.14;81.80
68075;BME280;54864;52.002;5.468;2023-09-12T00:28:29;101106.09;;;22.08;81.86
68075;BME280;54864;52.002;5.468;2023-09-12T00:29:29;101102.28;;;22.10;81.46
68075;BME280;54864;52.002;5.468;2023-09-12T00:30:31;101095.97;;;22.11;81.37
68075;BME280;54864;52.002;5.468;2023-09-12T00:31:32;101103.56;;;22.06;81.13
68075;BME280;54864;52.002;5.468;2023-09-12T00:32:34;101093.09;;;22.03;81.23
68075;BME280;54864;52.002;5.468;2023-09-12T00:33:34;101099.69;;;21.99;81.32
68075;BME280;54864;52.002;5.468;2023-09-12T00:34:36;101102.19;;;21.91;81.49
68075;BME280;54864;52.002;5.468;2023-09-12T00:35:37;101104.03;;;21.91;81.84
68075;BME280;54864;52.002;5.468;2023-09-12T00:36:38;101100.94;;;21.95;81.47
68075;BME280;54864;52.002;5.468;2023-09-12T00:37:39;101100.81;;;21.97;81.25
68075;BME280;54864;52.002;5.468;2023-09-12T00:38:41;101104.34;;;21.97;81.03
68075;BME280;54864;52.002;5.468;2023-09-12T00:39:43;101098.97;;;21.97;80.55
68075;BME280;54864;52.002;5.468;2023-09-12T00:40:43;101100.38;;;21.92;80.83
68075;BME280;54864;52.002;5.468;2023-09-12T00:41:48;101107.00;;;21.88;81.24
68075;BME280;54864;52.002;5.468;2023-09-12T00:42:50;101109.66;;;21.88;81.49
68075;BME280;54864;52.002;5.468;2023-09-12T00:43:51;101109.22;;;21.82;81.34
68075;BME280;54864;52.002;5.468;2023-09-12T00:44:52;101109.91;;;21.75;81.38
68075;BME280;54864;52.002;5.468;2023-09-12T00:45:54;101117.69;;;21.78;81.18
68075;BME280;54864;52.002;5.468;2023-09-12T00:46:55;101113.44;;;21.75;81.11
68075;BME280;54864;52.002;5.468;2023-09-12T00:47:58;101112.84;;;21.72;81.12
68075;BME280;54864;52.002;5.468;2023-09-12T00:49:01;101110.44;;;21.69;81.43
68075;BME280;54864;52.002;5.468;2023-09-12T00:50:05;101114.69;;;21.71;81.73
68075;BME280;54864;52.002;5.468;2023-09-12T00:51:07;101121.03;;;21.70;81.85
68075;BME280;54864;52.002;5.468;2023-09-12T00:52:10;101122.28;;;21.66;82.14
68075;BME280;54864;52.002;5.468;2023-09-12T00:53:12;101121.72;;;21.63;81.95
68075;BME280;54864;52.002;5.468;2023-09-12T00:54:13;101125.50;;;21.60;82.16
68075;BME280;54864;52.002;5.468;2023-09-12T00:55:14;101114.91;;;21.59;82.27
68075;BME280;54864;52.002;5.468;2023-09-12T00:56:15;101109.41;;;21.60;82.34
68075;BME280;54864;52.002;5.468;2023-09-12T00:57:18;101118.03;;;21.64;82.17
68075;BME280;54864;52.002;5.468;2023-09-12T00:58:20;101119.28;;;21.60;82.26
68075;BME280;54864;52.002;5.468;2023-09-12T00:59:22;101122.38;;;21.55;81.95
68075;BME280;54864;52.002;5.468;2023-09-12T01:00:23;101127.44;;;21.48;81.97
68075;BME280;54864;52.002;5.468;2023-09-12T01:01:25;101121.44;;;21.45;81.77
68075;BME280;54864;52.002;5.468;2023-09-12T01:02:26;101113.53;;;21.43;82.27
68075;BME280;54864;52.002;5.468;2023-09-12T01:03:27;101116.59;;;21.39;82.46
68075;BME280;54864;52.002;5.468;2023-09-12T01:04:29;101118.69;;;21.35;82.94
68075;BME280;54864;52.002;5.468;2023-09-12T01:05:30;101123.22;;;21.35;82.56
68075;BME280;54864;52.002;5.468;2023-09-12T01:06:33;101115.31;;;21.33;82.35
68075;BME280;54864;52.002;5.468;2023-09-12T01:07:35;101116.88;;;21.36;82.30
68075;BME280;54864;52.002;5.468;2023-09-12T01:08:38;101113.72;;;21.31;82.41
68075;BME280;54864;52.002;5.468;2023-09-12T01:09:40;101122.16;;;21.26;82.67
68075;BME280;54864;52.002;5.468;2023-09-12T01:10:42;101125.72;;;21.27;82.39
68075;BME280;54864;52.002;5.468;2023-09-12T01:11:46;101121.31;;;21.26;82.26
68075;BME280;54864;52.002;5.468;2023-09-12T01:12:48;101123.03;;;21.27;82.14
68075;BME280;54864;52.002;5.468;2023-09-12T01:13:50;101119.34;;;21.28;81.82
68075;BME280;54864;52.002;5.468;2023-09-12T01:14:52;101120.34;;;21.27;81.75
68075;BME280;54864;52.002;5.468;2023-09-12T01:15:53;101126.69;;;21.26;81.86
68075;BME280;54864;52.002;5.468;2023-09-12T01:16:55;101125.59;;;21.17;82.26
68075;BME280;54864;52.002;5.468;2023-09-12T01:17:56;101120.84;;;21.20;82.39
68075;BME280;54864;52.002;5.468;2023-09-12T01:18:59;101121.47;;;21.24;82.08
68075;BME280;54864;52.002;5.468;2023-09-12T01:20:00;101122.94;;;21.17;82.06
68075;BME280;54864;52.002;5.468;2023-09-12T01:21:23;101122.78;;;21.18;82.11
68075;BME280;54864;52.002;5.468;2023-09-12T01:22:42;101118.53;;;21.16;81.83
68075;BME280;54864;52.002;5.468;2023-09-12T01:23:56;101126.13;;;21.11;82.23
68075;BME280;54864;52.002;5.468;2023-09-12T01:25:22;101125.03;;;21.13;81.91
68075;BME280;54864;52.002;5.468;2023-09-12T01:26:29;101123.91;;;21.16;81.82
68075;BME280;54864;52.002;5.468;2023-09-12T01:27:41;101120.63;;;21.12;81.70
68075;BME280;54864;52.002;5.468;2023-09-12T01:28:44;101124.44;;;21.10;81.67
68075;BME280;54864;52.002;5.468;2023-09-12T01:29:46;101123.59;;;21.09;81.83
68075;BME280;54864;52.002;5.468;2023-09-12T01:30:48;101114.81;;;21.07;81.62
68075;BME280;54864;52.002;5.468;2023-09-12T01:31:52;101117.38;;;21.09;81.42
68075;BME280;54864;52.002;5.468;2023-09-12T01:32:55;101112.13;;;21.07;81.57
68075;BME280;54864;52.002;5.468;2023-09-12T01:33:56;101115.06;;;21.04;81.50
68075;BME280;54864;52.002;5.468;2023-09-12T01:34:58;101117.16;;;21.01;81.33
68075;BME280;54864;52.002;5.468;2023-09-12T01:35:59;101115.59;;;20.98;81.35
68075;BME280;54864;52.002;5.468;2023-09-12T01:37:01;101123.50;;;21.00;81.43
68075;BME280;54864;52.002;5.468;2023-09-12T01:38:02;101111.09;;;20.99;81.25
68075;BME280;54864;52.002;5.468;2023-09-12T01:39:04;101109.50;;;20.96;81.40
68075;BME280;54864;52.002;5.468;2023-09-12T01:40:06;101113.88;;;20.97;81.21
68075;BME280;54864;52.002;5.468;2023-09-12T01:41:08;101104.66;;;20.90;81.31
68075;BME280;54864;52.002;5.468;2023-09-12T01:42:13;101105.97;;;20.96;81.35
68075;BME280;54864;52.002;5.468;2023-09-12T01:43:18;101114.66;;;20.88;81.85
68075;BME280;54864;52.002;5.468;2023-09-12T01:44:24;101105.44;;;20.81;82.27
68075;BME280;54864;52.002;5.468;2023-09-12T01:45:25;101112.13;;;20.75;82.94
68075;BME280;54864;52.002;5.468;2023-09-12T01:46:29;101113.75;;;20.67;83.51
68075;BME280;54864;52.002;5.468;2023-09-12T01:47:34;101109.25;;;20.67;83.28
68075;BME280;54864;52.002;5.468;2023-09-12T01:48:38;101109.25;;;20.67;83.05
68075;BME280;54864;52.002;5.468;2023-09-12T01:49:42;101101.34;;;20.66;82.80
68075;BME280;54864;52.002;5.468;2023-09-12T01:50:45;101104.59;;;20.69;82.73
68075;BME280;54864;52.002;5.468;2023-09-12T01:51:46;101107.03;;;20.72;82.45
68075;BME280;54864;52.002;5.468;2023-09-12T01:52:48;101107.16;;;20.71;82.38
68075;BME280;54864;52.002;5.468;2023-09-12T01:53:50;101116.03;;;20.71;82.13
68075;BME280;54864;52.002;5.468;2023-09-12T01:54:52;101105.19;;;20.73;82.02
68075;BME280;54864;52.002;5.468;2023-09-12T01:55:56;101104.34;;;20.72;81.79
68075;BME280;54864;52.002;5.468;2023-09-12T01:56:58;101102.53;;;20.73;81.57
68075;BME280;54864;52.002;5.468;2023-09-12T01:57:59;101108.00;;;20.71;81.70
68075;BME280;54864;52.002;5.468;2023-09-12T01:59:03;101106.31;;;20.70;81.55
68075;BME280;54864;52.002;5.468;2023-09-12T02:00:05;101104.72;;;20.68;81.52
68075;BME280;54864;52.002;5.468;2023-09-12T02:01:07;101099.75;;;20.63;81.88
68075;BME280;54864;52.002;5.468;2023-09-12T02:02:07;101101.47;;;20.64;81.96
68075;BME280;54864;52.002;5.468;2023-09-12T02:03:09;101095.00;;;20.67;81.89
68075;BME280;54864;52.002;5.468;2023-09-12T02:04:10;101103.03;;;20.67;81.94
68075;BME280;54864;52.002;5.468;2023-09-12T02:05:14;101098.91;;;20.63;81.99
68075;BME280;54864;52.002;5.468;2023-09-12T02:06:18;101095.50;;;20.61;82.08
68075;BME280;54864;52.002;5.468;2023-09-12T02:07:21;101097.34;;;20.60;82.07
68075;BME280;54864;52.002;5.468;2023-09-12T02:08:23;101101.59;;;20.63;81.86
68075;BME280;54864;52.002;5.468;2023-09-12T02:09:25;101096.34;;;20.61;81.72
68075;BME280;54864;52.002;5.468;2023-09-12T02:10:26;101092.09;;;20.58;81.64
68075;BME280;54864;52.002;5.468;2023-09-12T02:11:28;101094.78;;;20.58;81.68
68075;BME280;54864;52.002;5.468;2023-09-12T02:12:28;101098.69;;;20.54;81.53
68075;BME280;54864;52.002;5.468;2023-09-12T02:13:30;101096.88;;;20.55;81.62
68075;BME280;54864;52.002;5.468;2023-09-12T02:14:32;101098.22;;;20.49;81.62
68075;BME280;54864;52.002;5.468;2023-09-12T02:15:34;101100.06;;;20.49;81.56
68075;BME280;54864;52.002;5.468;2023-09-12T02:16:36;101099.31;;;20.47;81.66
68075;BME280;54864;52.002;5.468;2023-09-12T02:17:38;101092.28;;;20.46;81.61
68075;BME280;54864;52.002;5.468;2023-09-12T02:18:39;101094.09;;;20.45;81.69
68075;BME280;54864;52.002;5.468;2023-09-12T02:19:41;101091.28;;;20.36;82.03
68075;BME280;54864;52.002;5.468;2023-09-12T02:20:42;101094.22;;;20.33;82.55
68075;BME280;54864;52.002;5.468;2023-09-12T02:21:46;101092.53;;;20.32;82.64
68075;BME280;54864;52.002;5.468;2023-09-12T02:22:48;101087.88;;;20.34;82.32
68075;BME280;54864;52.002;5.468;2023-09-12T02:23:48;101092.28;;;20.35;81.95
68075;BME280;54864;52.002;5.468;2023-09-12T02:24:50;101092.41;;;20.33;82.01
68075;BME280;54864;52.002;5.468;2023-09-12T02:25:51;101085.34;;;20.32;81.80
68075;BME280;54864;52.002;5.468;2023-09-12T02:26:53;101089.13;;;20.30;81.66
68075;BME280;54864;52.002;5.468;2023-09-12T02:27:54;101093.88;;;20.26;81.70
68075;BME280;54864;52.002;5.468;2023-09-12T02:28:55;101083.53;;;20.21;81.77
68075;BME280;54864;52.002;5.468;2023-09-12T02:29:57;101089.03;;;20.20;81.95
68075;BME280;54864;52.002;5.468;2023-09-12T02:30:59;101089.88;;;20.20;82.13
68075;BME280;54864;52.002;5.468;2023-09-12T02:32:00;101087.06;;;20.22;82.21
68075;BME280;54864;52.002;5.468;2023-09-12T02:33:02;101089.75;;;20.22;82.09
68075;BME280;54864;52.002;5.468;2023-09-12T02:34:03;101089.88;;;20.20;81.75
68075;BME280;54864;52.002;5.468;2023-09-12T02:35:05;101092.69;;;20.19;81.82
68075;BME280;54864;52.002;5.468;2023-09-12T02:36:06;101088.03;;;20.21;81.82
68075;BME280;54864;52.002;5.468;2023-09-12T02:37:07;101090.72;;;20.21;81.80
68075;BME280;54864;52.002;5.468;2023-09-12T02:38:09;101100.59;;;20.20;81.78
68075;BME280;54864;52.002;5.468;2023-09-12T02:39:10;101098.03;;;20.19;81.76
68075;BME280;54864;52.002;5.468;2023-09-12T02:40:12;101092.81;;;20.17;81.95
68075;BME280;54864;52.002;5.468;2023-09-12T02:41:14;101092.03;;;20.15;82.07
68075;BME280;54864;52.002;5.468;2023-09-12T02:42:16;101100.19;;;20.14;82.29
68075;BME280;54864;52.002;5.468;2023-09-12T02:43:17;101095.81;;;20.13;82.15
68075;BME280;54864;52.002;5.468;2023-09-12T02:44:18;101094.97;;;20.12;82.25
68075;BME280;54864;52.002;5.468;2023-09-12T02:45:20;101098.75;;;20.10;82.49
68075;BME280;54864;52.002;5.468;2023-09-12T02:46:22;101102.03;;;20.13;82.75
68075;BME280;54864;52.002;5.468;2023-09-12T02:47:23;101100.31;;;20.12;82.76
68075;BME280;54864;52.002;5.468;2023-09-12T02:48:25;101104.81;;;20.12;82.51
68075;BME280;54864;52.002;5.468;2023-09-12T02:49:25;101103.13;;;20.11;82.80
68075;BME280;54864;52.002;5.468;2023-09-12T02:50:27;101107.50;;;20.12;82.69
68075;BME280;54864;52.002;5.468;2023-09-12T02:51:29;101109.19;;;20.13;82.52
68075;BME280;54864;52.002;5.468;2023-09-12T02:52:31;101110.78;;;20.15;82.41
68075;BME280;54864;52.002;5.468;2023-09-12T02:53:31;101122.47;;;20.14;82.80
68075;BME280;54864;52.002;5.468;2023-09-12T02:54:33;101114.44;;;20.14;82.62
68075;BME280;54864;52.002;5.468;2023-09-12T02:55:39;101110.91;;;20.14;82.83
68075;BME280;54864;52.002;5.468;2023-09-12T02:56:41;101113.59;;;20.14;83.29
68075;BME280;54864;52.002;5.468;2023-09-12T02:57:42;101110.31;;;20.10;83.44
68075;BME280;54864;52.002;5.468;2023-09-12T02:58:46;101111.88;;;20.13;83.99
68075;BME280;54864;52.002;5.468;2023-09-12T02:59:46;101108.00;;;20.17;83.91
68075;BME280;54864;52.002;5.468;2023-09-12T03:00:50;101108.84;;;20.17;84.35
68075;BME280;54864;52.002;5.468;2023-09-12T03:01:56;101115.06;;;20.18;84.67
68075;BME280;54864;52.002;5.468;2023-09-12T03:02:58;101107.75;;;20.20;84.48
68075;BME280;54864;52.002;5.468;2023-09-12T03:04:01;101110.19;;;20.23;84.21
68075;BME280;54864;52.002;5.468;2023-09-12T03:05:04;101108.13;;;20.26;83.99
68075;BME280;54864;52.002;5.468;2023-09-12T03:06:05;101102.28;;;20.21;84.45
68075;BME280;54864;52.002;5.468;2023-09-12T03:07:07;101113.59;;;20.25;84.83
68075;BME280;54864;52.002;5.468;2023-09-12T03:08:08;101114.31;;;20.27;84.68
68075;BME280;54864;52.002;5.468;2023-09-12T03:09:10;101106.53;;;20.24;84.62
68075;BME280;54864;52.002;5.468;2023-09-12T03:10:11;101101.19;;;20.24;84.69
68075;BME280;54864;52.002;5.468;2023-09-12T03:11:14;101119.69;;;20.27;84.39
68075;BME280;54864;52.002;5.468;2023-09-12T03:12:15;101116.75;;;20.30;84.42
68075;BME280;54864;52.002;5.468;2023-09-12T03:13:17;101108.47;;;20.33;84.38
68075;BME280;54864;52.002;5.468;2023-09-12T03:14:18;101110.28;;;20.33;84.94
68075;BME280;54864;52.002;5.468;2023-09-12T03:15:20;101101.66;;;20.29;84.97
68075;BME280;54864;52.002;5.468;2023-09-12T03:16:22;101102.63;;;20.28;85.06
68075;BME280;54864;52.002;5.468;2023-09-12T03:17:24;101102.63;;;20.28;85.26
68075;BME280;54864;52.002;5.468;2023-09-12T03:18:25;101098.84;;;20.31;85.38
68075;BME280;54864;52.002;5.468;2023-09-12T03:19:27;101102.50;;;20.30;85.19
68075;BME280;54864;52.002;5.468;2023-09-12T03:20:30;101104.81;;;20.34;85.17
68075;BME280;54864;52.002;5.468;2023-09-12T03:21:31;101108.00;;;20.39;84.98
68075;BME280;54864;52.002;5.468;2023-09-12T03:22:32;101110.03;;;20.36;84.86
68075;BME280;54864;52.002;5.468;2023-09-12T03:23:37;101111.75;;;20.37;84.95
68075;BME280;54864;52.002;5.468;2023-09-12T03:24:38;101111.53;;;20.40;84.81
68075;BME280;54864;52.002;5.468;2023-09-12T03:25:40;101107.13;;;20.39;84.85
68075;BME280;54864;52.002;5.468;2023-09-12T03:26:41;101112.13;;;20.43;84.64
68075;BME280;54864;52.002;5.468;2023-09-12T03:27:42;101113.09;;;20.42;84.89
68075;BME280;54864;52.002;5.468;2023-09-12T03:28:43;101111.88;;;20.46;85.09
68075;BME280;54864;52.002;5.468;2023-09-12T03:29:46;101114.41;;;20.48;85.07
68075;BME280;54864;52.002;5.468;2023-09-12T03:30:48;101106.97;;;20.51;84.98
68075;BME280;54864;52.002;5.468;2023-09-12T03:31:50;101105.16;;;20.52;85.06
68075;BME280;54864;52.002;5.468;2023-09-12T03:32:52;101102.34;;;20.53;85.21
68075;BME280;54864;52.002;5.468;2023-09-12T03:33:53;101099.91;;;20.50;85.50
68075;BME280;54864;52.002;5.468;2023-09-12T03:34:55;101098.69;;;20.54;85.57
68075;BME280;54864;52.002;5.468;2023-09-12T03:35:56;101083.72;;;20.52;85.35
68075;BME280;54864;52.002;5.468;2023-09-12T03:36:57;101095.16;;;20.54;85.30
68075;BME280;54864;52.002;5.468;2023-09-12T03:38:00;101092.22;;;20.57;85.44
68075;BME280;54864;52.002;5.468;2023-09-12T03:39:01;101087.97;;;20.54;85.21
68075;BME280;54864;52.002;5.468;2023-09-12T03:40:07;101091.97;;;20.60;85.17
68075;BME280;54864;52.002;5.468;2023-09-12T03:41:08;101093.56;;;20.63;84.89
68075;BME280;54864;52.002;5.468;2023-09-12T03:42:10;101095.50;;;20.61;84.99
68075;BME280;54864;52.002;5.468;2023-09-12T03:43:11;101092.34;;;20.55;85.49
68075;BME280;54864;52.002;5.468;2023-09-12T03:44:13;101091.13;;;20.60;85.26
68075;BME280;54864;52.002;5.468;2023-09-12T03:45:14;101096.34;;;20.61;84.89
68075;BME280;54864;52.002;5.468;2023-09-12T03:46:15;101091.13;;;20.60;85.15
68075;BME280;54864;52.002;5.468;2023-09-12T03:47:18;101095.63;;;20.59;85.21
68075;BME280;54864;52.002;5.468;2023-09-12T03:48:19;101088.31;;;20.61;84.84
68075;BME280;54864;52.002;5.468;2023-09-12T03:49:20;101089.91;;;20.64;84.94
68075;BME280;54864;52.002;5.468;2023-09-12T03:50:21;101093.88;;;20.69;84.99
68075;BME280;54864;52.002;5.468;2023-09-12T03:51:23;101091.59;;;20.65;85.00
68075;BME280;54864;52.002;5.468;2023-09-12T03:52:24;101085.13;;;20.67;84.99
68075;BME280;54864;52.002;5.468;2023-09-12T03:53:26;101094.66;;;20.60;85.03
68075;BME280;54864;52.002;5.468;2023-09-12T03:54:26;101095.38;;;20.62;85.25
68075;BME280;54864;52.002;5.468;2023-09-12T03:55:28;101094.13;;;20.66;84.91
68075;BME280;54864;52.002;5.468;2023-09-12T03:56:29;101088.19;;;20.63;84.83
68075;BME280;54864;52.002;5.468;2023-09-12T03:57:31;101090.16;;;20.61;85.25
68075;BME280;54864;52.002;5.468;2023-09-12T03:58:32;101090.75;;;20.64;85.13
68075;BME280;54864;52.002;5.468;2023-09-12T03:59:34;101092.81;;;20.61;84.93
68075;BME280;54864;52.002;5.468;2023-09-12T04:00:35;101098.78;;;20.64;84.87
68075;BME280;54864;52.002;5.468;2023-09-12T04:01:37;101088.66;;;20.68;84.89
68075;BME280;54864;52.002;5.468;2023-09-12T04:02:39;101097.94;;;20.64;85.15
68075;BME280;54864;52.002;5.468;2023-09-12T04:03:41;101096.09;;;20.64;85.18
68075;BME280;54864;52.002;5.468;2023-09-12T04:04:42;101088.66;;;20.68;84.96
68075;BME280;54864;52.002;5.468;2023-09-12T04:05:46;101095.84;;;20.67;84.83
68075;BME280;54864;52.002;5.468;2023-09-12T04:06:46;101090.47;;;20.67;84.64
68075;BME280;54864;52.002;5.468;2023-09-12T04:07:48;101102.91;;;20.68;84.69
68075;BME280;54864;52.002;5.468;2023-09-12T04:08:49;101102.06;;;20.68;84.57
68075;BME280;54864;52.002;5.468;2023-09-12T04:09:51;101094.28;;;20.65;84.46
68075;BME280;54864;52.002;5.468;2023-09-12T04:10:52;101090.75;;;20.64;84.55
68075;BME280;54864;52.002;5.468;2023-09-12T04:11:53;101085.38;;;20.64;84.74
68075;BME280;54864;52.002;5.468;2023-09-12T04:12:54;101087.09;;;20.65;84.59
68075;BME280;54864;52.002;5.468;2023-09-12T04:13:56;101083.69;;;20.63;84.73
68075;BME280;54864;52.002;5.468;2023-09-12T04:14:57;101083.44;;;20.66;84.61
68075;BME280;54864;52.002;5.468;2023-09-12T04:15:59;101092.19;;;20.68;84.37
68075;BME280;54864;52.002;5.468;2023-09-12T04:16:59;101087.94;;;20.66;84.23
68075;BME280;54864;52.002;5.468;2023-09-12T04:18:03;101086.81;;;20.68;84.25
68075;BME280;54864;52.002;5.468;2023-09-12T04:19:04;101081.00;;;20.63;84.07
68075;BME280;54864;52.002;5.468;2023-09-12T04:20:06;101075.78;;;20.62;84.34
68075;BME280;54864;52.002;5.468;2023-09-12T04:21:07;101075.19;;;20.58;84.54
68075;BME280;54864;52.002;5.468;2023-09-12T04:22:09;101064.72;;;20.55;84.50
68075;BME280;54864;52.002;5.468;2023-09-12T04:23:10;101079.59;;;20.48;84.64
68075;BME280;54864;52.002;5.468;2023-09-12T04:24:12;101079.09;;;20.54;84.86
68075;BME280;54864;52.002;5.468;2023-09-12T04:25:12;101070.94;;;20.55;84.60
68075;BME280;54864;52.002;5.468;2023-09-12T04:26:14;101077.13;;;20.56;84.23
68075;BME280;54864;52.002;5.468;2023-09-12T04:27:18;101082.63;;;20.54;84.22
68075;BME280;54864;52.002;5.468;2023-09-12T04:28:19;101085.56;;;20.51;83.69
68075;BME280;54864;52.002;5.468;2023-09-12T04:29:20;101088.09;;;20.53;83.88
68075;BME280;54864;52.002;5.468;2023-09-12T04:30:22;101082.03;;;20.51;83.56
68075;BME280;54864;52.002;5.468;2023-09-12T04:31:23;101076.66;;;20.51;83.53
68075;BME280;54864;52.002;5.468;2023-09-12T04:32:25;101077.50;;;20.51;83.36
68075;BME280;54864;52.002;5.468;2023-09-12T04:33:27;101075.09;;;20.48;83.20
68075;BME280;54864;52.002;5.468;2023-09-12T04:34:29;101061.09;;;20.45;82.94
68075;BME280;54864;52.002;5.468;2023-09-12T04:35:33;101066.59;;;20.43;82.78
68075;BME280;54864;52.002;5.468;2023-09-12T04:36:34;101070.84;;;20.46;82.65
68075;BME280;54864;52.002;5.468;2023-09-12T04:37:35;101070.84;;;20.46;82.50
68075;BME280;54864;52.002;5.468;2023-09-12T04:38:37;101076.31;;;20.44;82.41
68075;BME280;54864;52.002;5.468;2023-09-12T04:39:38;101066.72;;;20.42;82.69
68075;BME280;54864;52.002;5.468;2023-09-12T04:40:40;101066.84;;;20.40;82.58
68075;BME280;54864;52.002;5.468;2023-09-12T04:41:40;101071.44;;;20.38;82.28
68075;BME280;54864;52.002;5.468;2023-09-12T04:42:42;101066.22;;;20.37;82.67
68075;BME280;54864;52.002;5.468;2023-09-12T04:43:43;101069.53;;;20.40;82.73
68075;BME280;54864;52.002;5.468;2023-09-12T04:44:45;101073.28;;;20.38;83.04
68075;BME280;54864;52.002;5.468;2023-09-12T04:45:46;101072.53;;;20.36;83.07
68075;BME280;54864;52.002;5.468;2023-09-12T04:46:48;101074.63;;;20.32;83.19
68075;BME280;54864;52.002;5.468;2023-09-12T04:47:49;101078.53;;;20.28;82.83
68075;BME280;54864;52.002;5.468;2023-09-12T04:48:52;101087.28;;;20.30;83.46
68075;BME280;54864;52.002;5.468;2023-09-12T04:49:53;101080.22;;;20.29;83.26
68075;BME280;54864;52.002;5.468;2023-09-12T04:50:55;101077.94;;;20.24;83.61
68075;BME280;54864;52.002;5.468;2023-09-12T04:51:57;101080.34;;;20.27;83.78
68075;BME280;54864;52.002;5.468;2023-09-12T04:52:58;101076.84;;;20.27;83.84
68075;BME280;54864;52.002;5.468;2023-09-12T04:53:59;101082.91;;;20.29;83.94
68075;BME280;54864;52.002;5.468;2023-09-12T04:55:01;101075.84;;;20.28;84.43
68075;BME280;54864;52.002;5.468;2023-09-12T04:56:02;101083.03;;;20.27;84.56
68075;BME280;54864;52.002;5.468;2023-09-12T04:57:04;101086.56;;;20.28;84.75
68075;BME280;54864;52.002;5.468;2023-09-12T04:58:05;101080.84;;;20.33;84.92
68075;BME280;54864;52.002;5.468;2023-09-12T04:59:07;101077.06;;;20.35;84.89
68075;BME280;54864;52.002;5.468;2023-09-12T05:00:09;101087.63;;;20.37;85.12
68075;BME280;54864;52.002;5.468;2023-09-12T05:01:12;101088.16;;;20.42;85.45
68075;BME280;54864;52.002;5.468;2023-09-12T05:02:13;101085.22;;;20.45;85.69
68075;BME280;54864;52.002;5.468;2023-09-12T05:03:13;101084.22;;;20.46;85.91
68075;BME280;54864;52.002;5.468;2023-09-12T05:04:17;101085.94;;;20.47;86.19
68075;BME280;54864;52.002;5.468;2023-09-12T05:05:18;101078.03;;;20.45;86.83
68075;BME280;54864;52.002;5.468;2023-09-12T05:06:19;101079.13;;;20.43;86.99
68075;BME280;54864;52.002;5.468;2023-09-12T05:07:21;101079.00;;;20.44;87.04
68075;BME280;54864;52.002;5.468;2023-09-12T05:08:22;101080.44;;;20.48;86.80
68075;BME280;54864;52.002;5.468;2023-09-12T05:09:23;101082.41;;;20.46;86.64
68075;BME280;54864;52.002;5.468;2023-09-12T05:10:25;101083.72;;;20.52;86.44
68075;BME280;54864;52.002;5.468;2023-09-12T05:11:26;101083.13;;;20.48;86.15
68075;BME280;54864;52.002;5.468;2023-09-12T05:12:28;101094.06;;;20.56;86.18
68075;BME280;54864;52.002;5.468;2023-09-12T05:13:29;101090.41;;;20.57;86.53
68075;BME280;54864;52.002;5.468;2023-09-12T05:14:30;101093.56;;;20.63;86.78
68075;BME280;54864;52.002;5.468;2023-09-12T05:15:31;101099.63;;;20.65;86.70
68075;BME280;54864;52.002;5.468;2023-09-12T05:16:32;101093.28;;;20.66;86.60
68075;BME280;54864;52.002;5.468;2023-09-12T05:17:34;101098.53;;;20.67;86.53
68075;BME280;54864;52.002;5.468;2023-09-12T05:18:35;101094.66;;;20.60;87.09
68075;BME280;54864;52.002;5.468;2023-09-12T05:19:38;101089.91;;;20.64;87.36
68075;BME280;54864;52.002;5.468;2023-09-12T05:20:39;101087.09;;;20.65;87.16
68075;BME280;54864;52.002;5.468;2023-09-12T05:21:41;101085.00;;;20.69;87.11
68075;BME280;54864;52.002;5.468;2023-09-12T05:22:41;101076.50;;;20.64;87.34
68075;BME280;54864;52.002;5.468;2023-09-12T05:23:43;101085.13;;;20.67;87.14
68075;BME280;54864;52.002;5.468;2023-09-12T05:24:44;101074.72;;;20.53;87.70